Terminal Aerodrome Forecast
Issued by NWS

Home | Current Version | Previous Version | Text Only | Print | Product List | Glossary On
Versions: 1 2 3 4 5 6 7 8 9 10 11 12 13 14 15 16
000
FTUS45 KTFX 190500
TAFHLN
TAF
KHLN 190531Z 1906/2006 VRB06KT P6SM BKN080
     FM190800 15006KT P6SM BKN110
     FM191900 VRB05KT P6SM VCSH SCT050 OVC070
     FM200100 24007KT 6SM -SHSN BR SCT030 OVC050=

USA.gov is the U.S. government's official web portal to all federal, state and local government web resources and services.